Time;durP1;ratioP1;P1;durP2;ratioP2;P2;SDS_P1;SDS_P2;PMS_P1;PMS_P2;Temp;Humidity;BMP_temperature;BMP_pressure;BME280_temperature;BME280_humidity;BME280_pressure;Samples;Min_cycle;Max_cycle;Signal;HPM_P1;HPM_P2
2022/11/04 00:01:28;;;;;;;25.80;12.98;;;;;;;12.82;85.09;98684.35;4132911;83;28479;-83
2022/11/04 00:13:49;;;;;;;23.67;13.18;;;;;;;12.57;87.63;98677.36;4254179;82;28532;-82
2022/11/04 00:38:54;;;;;;;27.58;12.68;;;;;;;12.87;86.07;98640.98;4300333;81;28490;-83
2022/11/04 00:44:56;;;;;;;22.07;12.15;;;;;;;12.71;87.31;98640.81;4299776;81;28439;-82
2022/11/04 00:50:57;;;;;;;24.65;12.03;;;;;;;12.64;87.84;98623.50;4296741;81;28486;-82
2022/11/04 00:56:59;;;;;;;25.82;12.33;;;;;;;12.79;86.88;98628.22;4279743;81;28501;-84
2022/11/04 01:03:01;;;;;;;24.00;12.68;;;;;;;12.43;88.03;98614.37;4293968;81;28485;-83
2022/11/04 01:09:09;;;;;;;24.05;11.80;;;;;;;12.40;90.25;98600.06;4286936;81;28526;-83
2022/11/04 01:15:10;;;;;;;22.65;11.50;;;;;;;12.50;89.84;98596.67;4279244;81;28471;-83
2022/11/04 01:21:14;;;;;;;22.65;12.25;;;;;;;12.84;87.75;98591.03;4295233;81;28467;-83
2022/11/04 01:27:15;;;;;;;21.65;11.88;;;;;;;12.36;90.27;98585.47;4301471;81;28472;-82
2022/11/04 01:33:17;;;;;;;23.90;11.10;;;;;;;12.60;88.77;98581.94;4292388;81;28461;-83
2022/11/04 01:39:18;;;;;;;23.73;11.55;;;;;;;12.32;89.77;98577.08;4261703;81;28535;-81
2022/11/04 01:45:21;;;;;;;25.02;11.20;;;;;;;12.59;89.16;98568.14;4275290;82;28546;-81
2022/11/04 01:58:04;;;;;;;20.37;11.17;;;;;;;12.60;89.79;98559.53;4271979;81;28452;-81
2022/11/04 02:10:28;;;;;;;21.25;11.63;;;;;;;12.87;87.03;98532.51;4288765;80;28544;-81
2022/11/04 02:16:44;;;;;;;20.48;10.70;;;;;;;12.96;85.95;98519.34;4273121;82;28526;-81
2022/11/04 02:23:26;;;;;;;22.77;10.25;;;;;;;12.59;88.07;98518.81;4248462;82;28475;-81
2022/11/04 02:29:38;;;;;;;19.40;9.75;;;;;;;12.26;90.68;98505.30;4255223;82;28459;-80
2022/11/04 02:35:56;;;;;;;17.35;9.33;;;;;;;12.74;87.81;98501.94;4247579;82;28521;-83
2022/11/04 02:42:15;;;;;;;20.55;10.00;;;;;;;12.99;85.94;98492.37;4251420;82;28554;-80
2022/11/04 02:48:34;;;;;;;19.35;10.32;;;;;;;12.43;89.90;98489.01;4260121;81;28461;-81
2022/11/04 02:54:49;;;;;;;19.10;9.75;;;;;;;12.94;87.42;98483.19;4270757;81;28488;-81
2022/11/04 03:00:53;;;;;;;17.43;9.63;;;;;;;13.00;86.65;98477.29;4293527;81;28500;-79
2022/11/04 03:06:56;;;;;;;18.02;9.60;;;;;;;13.11;85.79;98478.97;4247344;81;28494;-79
2022/11/04 03:13:15;;;;;;;18.17;8.88;;;;;;;13.14;85.59;98475.47;4286120;81;28500;-79
2022/11/04 03:19:43;;;;;;;19.42;9.70;;;;;;;13.26;84.85;98472.02;4252542;82;28462;-79
2022/11/04 03:25:48;;;;;;;18.50;9.40;;;;;;;13.00;85.06;98470.55;4270913;81;28482;-80
2022/11/04 03:32:03;;;;;;;21.12;10.30;;;;;;;13.00;85.95;98468.37;4297622;81;28464;-79
2022/11/04 03:38:05;;;;;;;16.67;8.98;;;;;;;12.91;87.42;98461.31;4299079;81;28470;-78
2022/11/04 03:44:06;;;;;;;18.20;9.28;;;;;;;12.69;87.62;98446.07;4277611;81;28526;-79
2022/11/04 03:50:13;;;;;;;17.07;9.53;;;;;;;12.68;88.67;98441.75;4259433;83;28601;-78
2022/11/04 03:56:25;;;;;;;20.10;9.63;;;;;;;12.91;88.24;98445.13;4250681;83;28531;-78
2022/11/04 04:02:54;;;;;;;18.77;9.45;;;;;;;12.79;88.92;98422.38;4206658;83;28521;-78
2022/11/04 04:09:19;;;;;;;19.00;9.58;;;;;;;12.60;88.25;98427.40;4245918;82;28609;-79
2022/11/04 04:15:26;;;;;;;17.75;9.55;;;;;;;12.63;89.26;98422.30;4251632;83;28914;-81
2022/11/04 04:21:33;;;;;;;16.48;8.43;;;;;;;12.67;87.93;98413.95;4190875;83;28567;-81
2022/11/04 04:27:35;;;;;;;15.85;8.48;;;;;;;12.67;88.19;98403.17;4186473;83;28516;-81
2022/11/04 04:33:38;;;;;;;18.73;10.15;;;;;;;12.44;89.60;98384.70;4197043;83;28449;-80
2022/11/04 04:46:19;;;;;;;16.32;9.25;;;;;;;12.07;92.35;98385.76;4171011;82;28472;-79
2022/11/04 04:52:23;;;;;;;14.75;8.15;;;;;;;12.15;93.52;98382.33;4171161;82;28541;-79
2022/11/04 04:58:24;;;;;;;17.65;9.53;;;;;;;12.26;91.79;98380.80;4206821;82;28458;-78
2022/11/04 05:04:25;;;;;;;18.55;9.10;;;;;;;12.11;94.13;98378.80;4185614;82;28550;-78
2022/11/04 05:10:27;;;;;;;23.25;9.15;;;;;;;12.34;92.59;98367.38;4184288;82;28515;-72
2022/11/04 05:16:28;;;;;;;18.55;9.05;;;;;;;12.27;91.52;98373.52;4166411;82;28573;-72
2022/11/04 05:22:29;;;;;;;17.12;9.15;;;;;;;12.21;92.00;98360.55;4198290;82;28518;-86
2022/11/04 05:28:31;;;;;;;19.82;9.38;;;;;;;12.59;89.78;98367.25;4187603;82;28445;-76
2022/11/04 05:34:32;;;;;;;16.37;9.33;;;;;;;12.79;88.56;98375.18;4215814;84;28636;-75
2022/11/04 05:40:35;;;;;;;20.02;9.63;;;;;;;12.71;88.38;98359.52;4210956;82;28513;-80
2022/11/04 05:46:37;;;;;;;20.08;10.25;;;;;;;12.69;88.49;98367.30;4214953;82;28466;-86
2022/11/04 05:52:38;;;;;;;21.05;10.43;;;;;;;12.65;88.84;98364.05;4203760;83;28504;-80
2022/11/04 05:58:40;;;;;;;20.35;10.40;;;;;;;12.22;91.21;98361.37;4203251;83;28504;-79
2022/11/04 06:04:41;;;;;;;22.73;10.65;;;;;;;12.57;90.43;98365.91;4248798;82;28463;-79
2022/11/04 06:10:42;;;;;;;20.60;10.80;;;;;;;12.79;89.04;98355.78;4229963;82;28510;-85
2022/11/04 06:16:44;;;;;;;22.95;11.35;;;;;;;12.43;91.28;98366.34;4197078;83;28577;-80
2022/11/04 06:22:47;;;;;;;23.27;11.22;;;;;;;12.53;90.96;98361.57;4176659;83;28518;-81
2022/11/04 06:28:50;;;;;;;23.50;12.10;;;;;;;12.79;90.65;98370.61;4177560;83;28453;-80
2022/11/04 06:34:51;;;;;;;26.05;11.57;;;;;;;12.45;92.24;98370.97;4183551;83;28530;-81
2022/11/04 06:40:54;;;;;;;23.62;11.48;;;;;;;12.55;91.47;98372.90;4176389;83;28491;-82
2022/11/04 06:46:56;;;;;;;19.50;10.82;;;;;;;12.43;92.67;98383.87;4182613;83;28531;-83
2022/11/04 06:52:58;;;;;;;24.00;11.35;;;;;;;12.41;92.87;98369.84;4182755;83;28554;-82
2022/11/04 06:59:04;;;;;;;22.67;10.75;;;;;;;13.15;89.98;98371.83;4163795;83;28494;-83
2022/11/04 07:05:07;;;;;;;24.18;9.93;;;;;;;13.60;86.41;98366.86;4156496;83;28557;-81
2022/11/04 07:11:08;;;;;;;17.60;9.00;;;;;;;13.62;86.29;98345.26;4164582;83;28498;-87
2022/11/04 07:17:10;;;;;;;15.90;8.30;;;;;;;13.59;85.45;98342.28;4156085;83;28539;-86
2022/11/04 07:23:11;;;;;;;18.37;9.20;;;;;;;13.64;83.59;98351.20;4185800;83;28636;-90
2022/11/04 07:29:14;;;;;;;20.35;9.38;;;;;;;14.10;82.01;98357.69;4205570;83;28477;-88
2022/11/04 07:35:16;;;;;;;21.33;9.58;;;;;;;14.22;79.71;98351.48;4304114;81;28477;-84
2022/11/04 07:41:17;;;;;;;21.02;10.30;;;;;;;14.15;79.52;98340.13;4253700;81;28472;-84
2022/11/04 07:47:19;;;;;;;19.30;8.85;;;;;;;14.28;78.09;98344.18;4298884;80;28447;-84
2022/11/04 07:53:20;;;;;;;20.27;8.70;;;;;;;14.29;78.02;98338.22;4288582;81;28455;-84
2022/11/04 07:59:24;;;;;;;18.67;8.30;;;;;;;14.43;76.18;98329.00;4296752;81;28478;-84
2022/11/04 08:05:25;;;;;;;22.65;9.00;;;;;;;14.36;75.68;98321.97;4119466;84;28451;-91
2022/11/04 08:11:27;;;;;;;22.02;9.85;;;;;;;14.53;76.47;98314.09;4158198;83;28498;-84
2022/11/04 08:17:30;;;;;;;17.05;9.05;;;;;;;14.87;75.86;98309.95;4303923;81;28502;-83
2022/11/04 08:23:33;;;;;;;20.35;9.90;;;;;;;14.84;74.55;98302.37;4295460;81;28556;-85
2022/11/04 08:29:36;;;;;;;20.88;9.25;;;;;;;14.91;74.42;98298.83;4305316;81;28463;-84
2022/11/04 08:35:37;;;;;;;25.60;10.10;;;;;;;15.07;74.31;98287.95;4271885;81;28463;-90
2022/11/04 08:41:49;;;;;;;19.90;9.50;;;;;;;15.15;73.62;98276.50;4326064;82;28467;-88
2022/11/04 08:47:50;;;;;;;22.13;9.83;;;;;;;15.15;73.85;98269.73;4306601;81;28505;-88
2022/11/04 08:53:56;;;;;;;23.45;9.05;;;;;;;15.61;72.08;98276.73;4280363;81;28536;-89
2022/11/04 09:00:08;;;;;;;18.67;8.48;;;;;;;15.91;69.87;98261.89;4241849;82;28429;-89
2022/11/04 09:06:15;;;;;;;15.00;7.33;;;;;;;16.02;68.92;98263.41;4258135;80;28627;-90
2022/11/04 09:12:16;;;;;;;17.37;7.55;;;;;;;16.11;68.28;98260.88;4297649;81;28449;-88
2022/11/04 09:18:22;;;;;;;16.70;7.53;;;;;;;16.29;67.83;98256.08;4268563;81;28463;-89
2022/11/04 09:24:23;;;;;;;15.38;7.40;;;;;;;16.63;66.55;98241.30;4292955;80;28849;-88
2022/11/04 09:30:25;;;;;;;16.67;7.08;;;;;;;16.56;65.76;98232.17;4317376;80;28459;-86
2022/11/04 09:36:28;;;;;;;11.68;5.55;;;;;;;17.05;65.04;98219.32;4280931;81;28461;-83
2022/11/04 09:42:52;;;;;;;11.48;5.90;;;;;;;17.10;62.81;98204.33;4292274;81;28479;-84
2022/11/04 09:48:56;;;;;;;11.70;6.12;;;;;;;17.31;62.33;98197.75;4258107;82;28471;-83
2022/11/04 09:55:17;;;;;;;8.68;5.40;;;;;;;17.93;61.31;98185.81;4225837;83;28492;-82
2022/11/04 10:01:45;;;;;;;13.22;5.60;;;;;;;18.30;61.10;98185.41;4188532;85;28466;-86
2022/11/04 10:07:55;;;;;;;12.43;5.25;;;;;;;18.42;59.30;98184.88;4153765;83;28477;-88
2022/11/04 10:14:24;;;;;;;9.20;5.08;;;;;;;18.93;57.59;98186.23;4254130;82;28509;-88
2022/11/04 10:20:40;;;;;;;8.35;4.55;;;;;;;18.81;56.17;98179.98;4194882;83;28530;-88
2022/11/04 10:27:00;;;;;;;10.17;5.17;;;;;;;19.93;56.41;98171.28;4162732;83;28925;-89
2022/11/04 10:33:19;;;;;;;9.70;4.85;;;;;;;19.62;55.88;98163.34;4218394;83;34018;-91
2022/11/04 10:39:29;;;;;;;9.13;4.37;;;;;;;19.77;54.65;98164.86;4198430;83;28557;-90
2022/11/04 10:45:35;;;;;;;7.47;3.90;;;;;;;20.10;55.70;98159.66;4218068;83;28483;-84
2022/11/04 10:51:37;;;;;;;9.28;5.08;;;;;;;19.78;54.03;98152.83;4228001;83;28599;-86
2022/11/04 10:57:39;;;;;;;11.57;5.00;;;;;;;19.70;54.88;98145.98;4229655;83;28598;-86
2022/11/04 11:03:41;;;;;;;9.88;5.17;;;;;;;19.82;54.68;98153.02;4232098;83;28515;-85
2022/11/04 11:09:59;;;;;;;11.90;6.05;;;;;;;19.45;55.22;98157.23;4231244;83;28479;-86
2022/11/04 11:16:10;;;;;;;13.48;5.60;;;;;;;20.05;55.08;98150.23;4202151;83;28478;-85
2022/11/04 11:22:40;;;;;;;10.58;6.12;;;;;;;20.26;55.19;98142.28;4215638;83;28460;-86
2022/11/04 11:28:55;;;;;;;12.63;5.87;;;;;;;20.26;54.94;98137.38;4213828;83;28447;-85
2022/11/04 11:35:00;;;;;;;10.78;5.60;;;;;;;20.35;54.40;98124.55;4207376;83;28450;-85
2022/11/04 11:41:12;;;;;;;9.43;5.50;;;;;;;20.08;54.38;98122.89;4224637;83;28521;-85
2022/11/04 11:47:34;;;;;;;10.53;5.45;;;;;;;19.97;54.48;98119.09;4229250;83;28557;-85
2022/11/04 11:53:38;;;;;;;9.60;4.92;;;;;;;20.44;54.88;98099.44;4208750;83;28485;-87
2022/11/04 11:59:50;;;;;;;10.25;5.12;;;;;;;20.15;54.25;98090.47;4181336;83;28507;-86
2022/11/04 12:06:26;;;;;;;11.83;5.45;;;;;;;20.69;54.74;98093.51;4187218;83;28459;-86
2022/11/04 12:12:45;;;;;;;13.13;5.57;;;;;;;20.40;53.62;98099.03;4160368;83;28498;-86
2022/11/04 12:19:13;;;;;;;11.93;5.67;;;;;;;20.69;53.01;98091.56;4169979;83;28504;-85
2022/11/04 12:25:29;;;;;;;11.12;5.55;;;;;;;20.41;53.60;98086.44;4046927;85;28463;-85
2022/11/04 12:31:55;;;;;;;9.93;5.03;;;;;;;19.98;54.52;98080.32;4161897;83;28479;-85
2022/11/04 12:38:17;;;;;;;9.23;4.50;;;;;;;20.42;54.22;98083.95;4280341;82;28470;-84
2022/11/04 12:44:29;;;;;;;8.73;4.42;;;;;;;20.15;54.18;98068.64;4350702;81;28514;-86
2022/11/04 12:50:38;;;;;;;7.97;4.17;;;;;;;20.18;53.98;98065.29;4286903;81;28485;-89
2022/11/04 12:56:40;;;;;;;10.98;4.83;;;;;;;20.38;53.17;98068.52;4188481;83;28594;-87
2022/11/04 13:03:14;;;;;;;9.00;4.53;;;;;;;20.56;53.70;98078.30;4258673;82;28499;-88
2022/11/04 13:09:33;;;;;;;8.53;4.40;;;;;;;20.18;53.42;98067.44;4145387;83;28440;-87
2022/11/04 13:15:43;;;;;;;7.20;3.77;;;;;;;20.42;53.06;98073.58;4188317;83;28476;-87
2022/11/04 13:21:45;;;;;;;11.48;4.95;;;;;;;20.25;53.05;98060.14;4260438;83;28554;-86
2022/11/04 13:27:47;;;;;;;11.60;4.58;;;;;;;20.38;53.36;98064.43;4179157;83;28463;-90
2022/11/04 13:34:02;;;;;;;12.47;4.25;;;;;;;20.38;53.12;98069.31;4184745;85;28480;-90
2022/11/04 13:40:14;;;;;;;9.68;4.22;;;;;;;20.33;53.39;98067.54;4215661;83;28535;-89
2022/11/04 13:46:22;;;;;;;9.10;4.37;;;;;;;20.15;53.54;98070.81;4118537;84;28511;-90
2022/11/04 13:52:29;;;;;;;8.90;4.40;;;;;;;20.07;53.90;98074.33;4224378;82;28470;-92
2022/11/04 13:58:30;;;;;;;8.48;4.05;;;;;;;19.78;54.26;98075.11;4309057;81;28447;-90
2022/11/04 14:04:31;;;;;;;9.40;4.10;;;;;;;19.98;54.01;98071.59;4152141;83;28461;-90
2022/11/04 14:10:51;;;;;;;9.55;4.05;;;;;;;19.94;53.66;98080.72;4168263;84;28471;-89
2022/11/04 14:16:54;;;;;;;10.10;4.70;;;;;;;20.03;53.78;98080.19;4308392;81;28469;-89
2022/11/04 14:22:59;;;;;;;9.80;4.80;;;;;;;19.89;53.74;98082.45;4296709;81;28444;-88
2022/11/04 14:29:18;;;;;;;10.32;4.35;;;;;;;19.62;54.55;98085.64;4297884;81;28494;-87
2022/11/04 14:35:20;;;;;;;9.55;4.45;;;;;;;20.12;54.10;98081.56;4304199;81;28458;-86
2022/11/04 14:41:42;;;;;;;10.28;4.37;;;;;;;20.03;53.74;98082.34;4253678;82;28540;-87
2022/11/04 14:47:48;;;;;;;10.30;4.72;;;;;;;19.98;53.91;98076.23;4273321;81;28506;-87
2022/11/04 14:54:08;;;;;;;11.93;4.72;;;;;;;19.85;54.60;98069.77;4213304;82;28486;-87
2022/11/04 15:00:38;;;;;;;9.23;4.95;;;;;;;19.72;54.77;98069.55;4116598;84;28537;-89
2022/11/04 15:06:41;;;;;;;14.20;6.25;;;;;;;19.82;55.01;98073.92;4143244;84;28457;-87
2022/11/04 15:12:51;;;;;;;14.23;5.72;;;;;;;19.86;55.10;98079.55;4124336;84;28535;-88
2022/11/04 15:18:56;;;;;;;12.93;6.62;;;;;;;19.83;55.37;98078.80;4138467;84;28584;-92
2022/11/04 15:25:03;;;;;;;10.82;5.90;;;;;;;19.85;55.45;98061.59;4146157;86;28484;-91
2022/11/04 15:31:19;;;;;;;13.38;6.10;;;;;;;19.79;55.99;98084.89;4123401;84;28463;-94
2022/11/04 15:37:24;;;;;;;13.48;6.17;;;;;;;19.68;57.62;98085.48;4121037;84;28462;-86
2022/11/04 15:43:27;;;;;;;15.50;6.28;;;;;;;19.67;58.27;98081.97;4149169;84;28451;-91
2022/11/04 15:49:31;;;;;;;21.20;7.30;;;;;;;19.63;57.74;98072.83;4167687;83;28471;-91
2022/11/04 15:55:36;;;;;;;14.98;6.20;;;;;;;19.64;57.95;98067.62;4177119;83;28472;-87
2022/11/04 16:01:55;;;;;;;16.12;7.65;;;;;;;19.12;59.56;98063.53;4201595;83;28463;-85
2022/11/04 16:08:21;;;;;;;17.52;7.08;;;;;;;18.98;60.12;98062.75;4187290;83;28479;-85
2022/11/04 16:14:27;;;;;;;21.30;7.53;;;;;;;19.20;60.10;98050.48;4111365;83;28452;-92
2022/11/04 16:20:34;;;;;;;20.70;9.23;;;;;;;19.11;60.66;98047.48;4201306;83;29057;-89
2022/11/04 16:26:43;;;;;;;19.07;8.00;;;;;;;19.16;61.41;98050.87;4190834;83;28444;-89
2022/11/04 16:33:08;;;;;;;16.85;8.58;;;;;;;18.76;63.67;98051.58;4184696;83;28507;-89
2022/11/04 16:39:08;;;;;;;16.93;8.88;;;;;;;18.70;64.63;98037.04;4095056;84;28452;-88
2022/11/04 16:45:40;;;;;;;18.17;9.60;;;;;;;18.47;65.40;98044.63;4191957;84;28471;-89
2022/11/04 16:51:56;;;;;;;20.32;9.30;;;;;;;18.68;65.08;98041.42;4195791;82;28624;-86
2022/11/04 16:58:02;;;;;;;23.52;10.72;;;;;;;18.58;65.81;98032.14;4195941;83;28503;-86
2022/11/04 17:04:05;;;;;;;23.20;12.23;;;;;;;18.21;67.70;98038.39;4198234;83;28438;-87
2022/11/04 17:10:27;;;;;;;28.92;12.88;;;;;;;18.15;68.83;98027.94;4136884;83;28466;-86
2022/11/04 17:16:29;;;;;;;26.60;12.98;;;;;;;18.51;67.96;98027.13;4210931;82;28565;-86
2022/11/04 17:22:38;;;;;;;25.72;14.60;;;;;;;18.58;68.50;98028.84;4217058;83;28465;-88
2022/11/04 17:28:42;;;;;;;27.87;14.35;;;;;;;18.61;68.40;98047.84;4223476;82;28452;-87
2022/11/04 17:34:45;;;;;;;29.63;15.72;;;;;;;18.66;68.52;98037.64;4224556;83;28508;-86
2022/11/04 17:47:08;;;;;;;34.38;18.37;;;;;;;18.46;70.32;98047.11;4221848;83;28497;-82
2022/11/04 17:53:10;;;;;;;37.98;19.12;;;;;;;18.32;70.55;98044.97;4213550;83;28468;-87
2022/11/04 17:59:14;;;;;;;34.38;16.48;;;;;;;18.47;70.42;98049.25;4169254;84;28572;-91
2022/11/04 18:05:16;;;;;;;39.90;20.00;;;;;;;18.75;70.98;98060.86;4134490;84;28504;-84
2022/11/04 18:17:43;;;;;;;38.13;20.12;;;;;;;18.50;73.31;98053.53;4199824;83;28506;-85
2022/11/04 18:23:45;;;;;;;36.20;20.05;;;;;;;18.37;76.15;98047.58;4211920;83;28486;-89
2022/11/04 18:29:46;;;;;;;46.30;22.13;;;;;;;18.63;74.75;98045.61;4203916;83;28528;-91
2022/11/04 18:35:47;;;;;;;34.33;19.35;;;;;;;17.93;81.28;98048.50;4202769;84;28473;-86
2022/11/04 18:41:49;;;;;;;40.63;21.02;;;;;;;18.16;83.66;98045.32;4194451;83;28515;-89
2022/11/04 18:47:50;;;;;;;38.33;19.05;;;;;;;17.98;85.89;98041.61;4191275;83;28498;-90
2022/11/04 18:53:52;;;;;;;35.52;19.25;;;;;;;17.41;88.00;98039.47;4206784;83;28465;-82
2022/11/04 18:59:55;;;;;;;39.13;19.27;;;;;;;17.32;89.23;98044.52;4206865;83;28496;-82
2022/11/04 19:05:56;;;;;;;32.13;18.50;;;;;;;17.87;87.17;98051.09;4204753;83;28543;-83
2022/11/04 19:18:18;;;;;;;41.83;21.30;;;;;;;17.78;89.75;98056.41;4204051;83;28516;-83
2022/11/04 19:24:19;;;;;;;36.73;19.37;;;;;;;17.48;91.69;98058.63;4181594;83;28441;-87
2022/11/04 19:30:21;;;;;;;33.60;17.92;;;;;;;17.98;86.88;98079.67;4184081;83;28506;-81
2022/11/04 19:36:26;;;;;;;34.30;19.62;;;;;;;17.76;87.67;98076.30;4207137;83;28584;-82
2022/11/04 19:48:47;;;;;;;36.45;18.80;;;;;;;17.64;92.93;98091.75;4192466;83;28462;-81
2022/11/04 19:54:48;;;;;;;29.80;17.27;;;;;;;17.55;91.47;98104.70;4194499;83;28487;-81
2022/11/04 20:00:50;;;;;;;38.05;19.30;;;;;;;17.03;93.13;98090.41;4184113;83;28528;-81
2022/11/04 20:06:52;;;;;;;34.75;19.15;;;;;;;16.81;95.26;98091.23;4187515;83;28941;-80
2022/11/04 20:19:13;;;;;;;32.13;18.73;;;;;;;16.68;98.51;98086.57;4190806;83;28534;-82
2022/11/04 20:25:14;;;;;;;36.23;20.68;;;;;;;16.64;98.68;98082.81;4190382;83;28473;-86
2022/11/04 20:31:22;;;;;;;41.70;21.37;;;;;;;16.64;99.58;98082.81;4188255;83;28502;-86
2022/11/04 20:37:30;;;;;;;37.67;19.82;;;;;;;16.78;98.31;98078.80;4193353;83;28477;-86
2022/11/04 20:43:35;;;;;;;35.20;19.98;;;;;;;17.10;95.84;98091.62;4199318;83;28517;-86
2022/11/04 20:49:37;;;;;;;40.92;19.98;;;;;;;16.99;96.42;98097.73;4197443;83;28498;-85
2022/11/04 20:55:40;;;;;;;40.38;20.52;;;;;;;17.11;94.31;98103.28;4193833;83;28554;-87
2022/11/04 21:01:44;;;;;;;39.58;20.27;;;;;;;17.35;92.47;98109.93;4207417;83;28445;-85
2022/11/04 21:07:58;;;;;;;38.40;20.05;;;;;;;17.51;91.36;98124.62;4167056;83;28577;-87
2022/11/04 21:14:02;;;;;;;35.17;19.98;;;;;;;17.46;91.40;98131.48;4167812;84;28459;-85
2022/11/04 21:20:05;;;;;;;34.50;19.12;;;;;;;17.34;93.67;98134.67;4173639;83;28524;-86
2022/11/04 21:26:18;;;;;;;34.48;19.52;;;;;;;17.24;94.15;98138.38;4186479;83;28472;-85
2022/11/04 21:32:21;;;;;;;33.63;20.05;;;;;;;17.39;92.98;98158.51;4161268;83;28469;-85
2022/11/04 21:38:22;;;;;;;30.85;17.75;;;;;;;17.30;93.66;98156.22;4183785;83;28463;-84
2022/11/04 21:44:29;;;;;;;34.92;20.48;;;;;;;16.63;98.31;98156.65;4178235;84;28470;-84
2022/11/04 21:50:28;;;;;;;34.67;19.07;;;;;;;17.04;96.87;98154.47;4204249;83;28478;-83
2022/11/04 21:56:33;;;;;;;33.60;19.20;;;;;;;17.08;95.94;98148.69;4264993;82;28467;-85
2022/11/04 22:02:46;;;;;;;33.83;19.27;;;;;;;16.66;98.05;98156.05;4269055;81;28470;-85
2022/11/04 22:08:53;;;;;;;42.03;23.95;;;;;;;16.97;97.29;98154.78;4263386;82;28519;-85
2022/11/04 22:14:58;;;;;;;34.83;19.20;;;;;;;17.45;93.21;98157.05;4302264;81;28954;-85
2022/11/04 22:21:05;;;;;;;37.00;19.52;;;;;;;17.45;92.78;98152.44;4297602;81;28447;-85
2022/11/04 22:27:11;;;;;;;35.55;19.42;;;;;;;17.52;92.22;98158.83;4262941;81;28458;-85
2022/11/04 22:33:13;;;;;;;35.83;19.65;;;;;;;17.42;93.42;98171.48;4305192;81;28479;-85
2022/11/04 22:39:14;;;;;;;35.83;19.55;;;;;;;17.34;93.04;98171.34;4305208;81;28499;-84
2022/11/04 22:45:16;;;;;;;37.23;19.52;;;;;;;17.30;93.58;98158.94;4251085;81;28465;-84
2022/11/04 22:51:19;;;;;;;34.03;19.42;;;;;;;17.24;94.07;98152.78;4271671;81;28469;-83
2022/11/04 22:57:21;;;;;;;32.33;19.15;;;;;;;17.23;94.20;98152.53;4221811;83;28560;-83
2022/11/04 23:03:22;;;;;;;31.93;18.17;;;;;;;17.25;94.80;98151.67;4258403;82;28447;-85
2022/11/04 23:09:24;;;;;;;29.98;19.32;;;;;;;16.66;98.06;98129.45;4253153;83;28662;-85
